createdAt,value
2024-03-26T00:00:54.135Z,-1.18
2024-03-26T00:01:54.114Z,-1.20
2024-03-26T00:02:54.110Z,-1.18
2024-03-26T00:03:54.092Z,-1.20
2024-03-26T00:04:54.177Z,-1.20
2024-03-26T00:05:54.069Z,-1.21
2024-03-26T00:06:54.057Z,-1.20
2024-03-26T00:07:54.072Z,-1.21
2024-03-26T00:08:54.049Z,-1.23
2024-03-26T00:09:54.058Z,-1.25
2024-03-26T00:10:54.009Z,-1.25
2024-03-26T00:11:54.001Z,-1.21
2024-03-26T00:12:53.986Z,-1.20
2024-03-26T00:13:53.998Z,-1.20
2024-03-26T00:14:53.984Z,-1.21
2024-03-26T00:15:53.939Z,-1.21
2024-03-26T00:16:53.961Z,-1.23
2024-03-26T00:17:53.925Z,-1.25
2024-03-26T00:18:53.932Z,-1.26
2024-03-26T00:19:53.889Z,-1.28
2024-03-26T00:20:53.881Z,-1.29
2024-03-26T00:21:53.862Z,-1.31
2024-03-26T00:22:53.915Z,-1.32
2024-03-26T00:23:53.861Z,-1.32
2024-03-26T00:24:53.826Z,-1.33
2024-03-26T00:25:53.831Z,-1.36
2024-03-26T00:26:53.812Z,-1.36
2024-03-26T00:27:53.827Z,-1.38
2024-03-26T00:28:53.798Z,-1.38
2024-03-26T00:29:53.758Z,-1.38
2024-03-26T00:30:53.754Z,-1.39
2024-03-26T00:31:53.749Z,-1.41
2024-03-26T00:32:53.743Z,-1.41
2024-03-26T00:33:53.719Z,-1.43
2024-03-26T00:34:53.708Z,-1.44
2024-03-26T00:35:53.720Z,-1.43
2024-03-26T00:36:53.692Z,-1.44
2024-03-26T00:37:53.672Z,-1.47
2024-03-26T00:38:53.649Z,-1.47
2024-03-26T00:39:53.660Z,-1.47
2024-03-26T00:40:53.630Z,-1.49
2024-03-26T00:41:53.615Z,-1.51
2024-03-26T00:42:53.602Z,-1.50
2024-03-26T00:43:53.585Z,-1.50
2024-03-26T00:44:53.609Z,-1.51
2024-03-26T00:45:53.568Z,-1.50
2024-03-26T00:46:53.557Z,-1.50
2024-03-26T00:47:53.530Z,-1.51
2024-03-26T00:48:53.536Z,-1.51
2024-03-26T00:49:53.528Z,-1.51
2024-03-26T00:50:53.512Z,-1.51
2024-03-26T00:51:53.494Z,-1.53
2024-03-26T00:52:53.490Z,-1.51
2024-03-26T00:53:53.495Z,-1.53
2024-03-26T00:54:53.441Z,-1.51
2024-03-26T00:55:53.440Z,-1.51
2024-03-26T00:56:53.425Z,-1.53
2024-03-26T00:57:53.423Z,-1.53
2024-03-26T00:58:53.403Z,-1.53
2024-03-26T00:59:53.383Z,-1.53
2024-03-26T01:00:53.378Z,-1.53
2024-03-26T01:01:53.367Z,-1.54
2024-03-26T01:02:53.377Z,-1.53
2024-03-26T01:03:53.323Z,-1.54
2024-03-26T01:04:53.339Z,-1.53
2024-03-26T01:05:53.310Z,-1.53
2024-03-26T01:06:53.295Z,-1.56
2024-03-26T01:07:53.300Z,-1.56
2024-03-26T01:08:53.266Z,-1.54
2024-03-26T01:09:53.262Z,-1.53
2024-03-26T01:10:53.244Z,-1.51
2024-03-26T01:11:53.227Z,-1.50
2024-03-26T01:12:53.242Z,-1.49
2024-03-26T01:13:53.205Z,-1.50
2024-03-26T01:14:53.207Z,-1.50
2024-03-26T01:15:53.176Z,-1.50
2024-03-26T01:16:53.187Z,-1.53
2024-03-26T01:17:53.175Z,-1.53
2024-03-26T01:18:53.174Z,-1.53
2024-03-26T01:19:53.153Z,-1.53
2024-03-26T01:20:53.138Z,-1.53
2024-03-26T01:21:53.117Z,-1.53
2024-03-26T01:22:53.093Z,-1.53
2024-03-26T01:23:53.092Z,-1.54
2024-03-26T01:24:53.064Z,-1.54
2024-03-26T01:25:53.051Z,-1.54
2024-03-26T01:26:53.060Z,-1.54
2024-03-26T01:27:53.039Z,-1.54
2024-03-26T01:28:53.024Z,-1.54
2024-03-26T01:29:53.002Z,-1.54
2024-03-26T01:30:53.005Z,-1.53
2024-03-26T01:31:52.983Z,-1.53
2024-03-26T01:32:53.061Z,-1.54
2024-03-26T01:33:52.963Z,-1.53
2024-03-26T01:34:52.964Z,-1.56
2024-03-26T01:35:52.958Z,-1.54
2024-03-26T01:36:52.970Z,-1.56
2024-03-26T01:37:52.934Z,-1.57
2024-03-26T01:38:52.892Z,-1.57
2024-03-26T01:39:52.878Z,-1.56
2024-03-26T01:40:52.878Z,-1.59
2024-03-26T01:41:52.880Z,-1.57
2024-03-26T01:42:52.845Z,-1.56
2024-03-26T01:43:52.824Z,-1.57
2024-03-26T01:44:52.813Z,-1.57
2024-03-26T01:45:52.801Z,-1.56
2024-03-26T01:46:52.832Z,-1.57
2024-03-26T01:47:52.788Z,-1.59
2024-03-26T01:48:52.760Z,-1.59
2024-03-26T01:49:52.765Z,-1.61
2024-03-26T01:50:52.769Z,-1.61
2024-03-26T01:51:52.736Z,-1.61
2024-03-26T01:52:52.720Z,-1.61
2024-03-26T01:53:52.739Z,-1.64
2024-03-26T01:54:52.680Z,-1.64
2024-03-26T01:55:52.678Z,-1.67
2024-03-26T01:56:52.659Z,-1.65
2024-03-26T01:57:52.645Z,-1.67
2024-03-26T01:58:52.652Z,-1.67
2024-03-26T01:59:52.631Z,-1.68
2024-03-26T02:00:52.640Z,-1.70
2024-03-26T02:01:52.593Z,-1.71
2024-03-26T02:02:52.625Z,-1.71
2024-03-26T02:03:52.588Z,-1.71
2024-03-26T02:04:52.565Z,-1.71
2024-03-26T02:05:52.539Z,-1.72
2024-03-26T02:06:52.540Z,-1.74
2024-03-26T02:07:52.525Z,-1.75
2024-03-26T02:08:52.532Z,-1.75
2024-03-26T02:09:52.509Z,-1.74
2024-03-26T02:10:52.473Z,-1.77
2024-03-26T02:11:52.470Z,-1.77
2024-03-26T02:12:52.453Z,-1.77
2024-03-26T02:13:52.442Z,-1.78
2024-03-26T02:14:52.466Z,-1.78
2024-03-26T02:15:52.411Z,-1.78
2024-03-26T02:16:52.399Z,-1.80
2024-03-26T02:17:52.387Z,-1.82
2024-03-26T02:18:52.389Z,-1.80
2024-03-26T02:19:52.368Z,-1.82
2024-03-26T02:20:52.352Z,-1.82
2024-03-26T02:21:52.341Z,-1.80
2024-03-26T02:22:52.327Z,-1.80
2024-03-26T02:23:52.342Z,-1.82
2024-03-26T02:24:52.295Z,-1.80
2024-03-26T02:25:52.278Z,-1.80
2024-03-26T02:26:52.272Z,-1.80
2024-03-26T02:27:52.273Z,-1.83
2024-03-26T02:28:52.266Z,-1.82
2024-03-26T02:29:52.262Z,-1.83
2024-03-26T02:30:52.227Z,-1.83
2024-03-26T02:31:52.226Z,-1.83
2024-03-26T02:32:52.206Z,-1.85
2024-03-26T02:33:52.181Z,-1.86
2024-03-26T02:34:52.178Z,-1.85
2024-03-26T02:35:52.167Z,-1.85
2024-03-26T02:36:52.157Z,-1.85
2024-03-26T02:37:52.138Z,-1.85
2024-03-26T02:38:52.119Z,-1.85
2024-03-26T02:39:52.106Z,-1.85
2024-03-26T02:40:52.107Z,-1.83
2024-03-26T02:41:52.093Z,-1.82
2024-03-26T02:42:52.080Z,-1.82
2024-03-26T02:43:52.046Z,-1.80
2024-03-26T02:44:52.063Z,-1.77
2024-03-26T02:45:52.026Z,-1.72
2024-03-26T02:46:52.043Z,-1.71
2024-03-26T02:47:52.039Z,-1.71
2024-03-26T02:48:52.012Z,-1.70
2024-03-26T02:49:51.970Z,-1.70
2024-03-26T02:50:52.019Z,-1.68
2024-03-26T02:51:51.959Z,-1.70
2024-03-26T02:52:51.946Z,-1.67
2024-03-26T02:53:51.921Z,-1.67
2024-03-26T02:54:51.918Z,-1.64
2024-03-26T02:55:51.924Z,-1.49
2024-03-26T02:56:51.938Z,-1.38
2024-03-26T02:57:51.873Z,-1.35
2024-03-26T02:58:51.876Z,-1.32
2024-03-26T02:59:51.847Z,-1.31
2024-03-26T03:00:51.849Z,-1.31
2024-03-26T03:01:51.820Z,-1.28
2024-03-26T03:02:51.831Z,-1.21
2024-03-26T03:03:51.791Z,-1.14
2024-03-26T03:04:51.796Z,-1.07
2024-03-26T03:05:51.817Z,-1.02
2024-03-26T03:06:51.763Z,-0.97
2024-03-26T03:07:51.747Z,-0.95
2024-03-26T03:08:51.754Z,-0.90
2024-03-26T03:09:51.728Z,-0.85
2024-03-26T03:10:51.753Z,-0.83
2024-03-26T03:11:51.708Z,-0.81
2024-03-26T03:12:51.692Z,-0.81
2024-03-26T03:13:51.687Z,-0.77
2024-03-26T03:14:51.669Z,-0.76
2024-03-26T03:15:51.654Z,-0.76
2024-03-26T03:16:51.663Z,-0.71
2024-03-26T03:17:51.619Z,-0.70
2024-03-26T03:18:51.613Z,-0.67
2024-03-26T03:19:51.615Z,-0.67
2024-03-26T03:20:51.577Z,-0.65
2024-03-26T03:21:51.578Z,-0.65
2024-03-26T03:22:51.579Z,-0.62
2024-03-26T03:23:51.550Z,-0.60
2024-03-26T03:24:51.523Z,-0.58
2024-03-26T03:25:51.519Z,-0.55
2024-03-26T03:26:51.515Z,-0.55
2024-03-26T03:27:51.507Z,-0.53
2024-03-26T03:28:51.491Z,-0.52
2024-03-26T03:29:51.484Z,-0.52
2024-03-26T03:30:51.452Z,-0.47
2024-03-26T03:31:51.437Z,-0.41
2024-03-26T03:32:51.502Z,-0.37
2024-03-26T03:33:51.427Z,-0.34
2024-03-26T03:34:51.398Z,-0.35
2024-03-26T03:35:51.398Z,-0.34
2024-03-26T03:36:51.380Z,-0.32
2024-03-26T03:37:51.384Z,-0.31
2024-03-26T03:38:51.386Z,-0.27
2024-03-26T03:39:51.342Z,-0.26
2024-03-26T03:40:51.333Z,-0.26
2024-03-26T03:41:51.360Z,-0.26
2024-03-26T03:42:51.304Z,-0.26
2024-03-26T03:43:51.300Z,-0.24
2024-03-26T03:44:51.277Z,-0.23
2024-03-26T03:45:51.275Z,-0.23
2024-03-26T03:46:51.257Z,-0.23
2024-03-26T03:47:51.288Z,-0.23
2024-03-26T03:48:51.222Z,-0.21
2024-03-26T03:49:51.212Z,-0.20
2024-03-26T03:50:51.256Z,-0.20
2024-03-26T03:51:51.208Z,-0.20
2024-03-26T03:52:51.215Z,-0.20
2024-03-26T03:53:53.548Z,-0.20
2024-03-26T03:54:51.161Z,-0.19
2024-03-26T03:55:51.176Z,-0.19
2024-03-26T03:56:51.158Z,-0.17
2024-03-26T03:57:51.141Z,-0.16
2024-03-26T03:58:51.110Z,-0.13
2024-03-26T03:59:51.141Z,-0.14
2024-03-26T04:00:51.077Z,-0.14
2024-03-26T04:01:51.064Z,-0.13
2024-03-26T04:02:51.111Z,-0.13
2024-03-26T04:03:51.047Z,-0.12
2024-03-26T04:04:51.022Z,-0.12
2024-03-26T04:05:51.031Z,-0.09
2024-03-26T04:06:51.011Z,-0.08
2024-03-26T04:07:51.004Z,-0.06
2024-03-26T04:08:50.989Z,-0.02
2024-03-26T04:09:50.976Z,-0.02
2024-03-26T04:10:50.959Z,-0.01
2024-03-26T04:11:52.736Z,-0.01
2024-03-26T04:12:50.928Z,0.02
2024-03-26T04:13:50.922Z,-0.01
2024-03-26T04:14:50.937Z,0.04
2024-03-26T04:15:50.888Z,0.04
2024-03-26T04:16:50.873Z,0.04
2024-03-26T04:17:50.945Z,0.07
2024-03-26T04:18:50.836Z,0.07
2024-03-26T04:19:50.839Z,0.08
2024-03-26T04:20:50.880Z,0.08
2024-03-26T04:21:50.818Z,0.07
2024-03-26T04:22:50.804Z,0.05
2024-03-26T04:23:50.823Z,0.05
2024-03-26T04:24:50.791Z,0.07
2024-03-26T04:25:50.761Z,0.08
2024-03-26T04:26:50.764Z,0.12
2024-03-26T04:27:50.732Z,0.12
2024-03-26T04:28:50.746Z,0.10
2024-03-26T04:29:50.733Z,0.12
2024-03-26T04:30:50.699Z,0.13
2024-03-26T04:31:50.694Z,0.15
2024-03-26T04:32:50.708Z,0.15
2024-03-26T04:33:50.708Z,0.17
2024-03-26T04:34:50.629Z,0.16
2024-03-26T04:35:50.661Z,0.16
2024-03-26T04:36:50.609Z,0.19
2024-03-26T04:37:50.617Z,0.20
2024-03-26T04:38:50.658Z,0.20
2024-03-26T04:39:50.570Z,0.23
2024-03-26T04:40:50.556Z,0.23
2024-03-26T04:41:50.600Z,0.25
2024-03-26T04:42:50.545Z,0.25
2024-03-26T04:43:50.531Z,0.26
2024-03-26T04:44:50.560Z,0.30
2024-03-26T04:45:52.637Z,0.30
2024-03-26T04:46:50.493Z,0.31
2024-03-26T04:47:50.507Z,0.34
2024-03-26T04:48:50.460Z,0.37
2024-03-26T04:49:50.444Z,0.35
2024-03-26T04:50:50.450Z,0.38
2024-03-26T04:51:50.426Z,0.38
2024-03-26T04:52:50.425Z,0.38
2024-03-26T04:53:50.410Z,0.37
2024-03-26T04:54:50.377Z,0.35
2024-03-26T04:55:50.370Z,0.35
2024-03-26T04:56:50.433Z,0.35
2024-03-26T04:57:50.349Z,0.34
2024-03-26T04:58:50.350Z,0.35
2024-03-26T04:59:50.328Z,0.37
2024-03-26T05:00:50.308Z,0.37
2024-03-26T05:01:50.308Z,0.40
2024-03-26T05:02:50.295Z,0.41
2024-03-26T05:03:50.304Z,0.43
2024-03-26T05:04:50.273Z,0.44
2024-03-26T05:05:50.252Z,0.45
2024-03-26T05:06:50.231Z,0.45
2024-03-26T05:07:50.219Z,0.45
2024-03-26T05:08:50.221Z,0.48
2024-03-26T05:09:50.224Z,0.45
2024-03-26T05:10:50.190Z,0.48
2024-03-26T05:11:50.230Z,0.49
2024-03-26T05:12:50.150Z,0.53
2024-03-26T05:13:50.173Z,0.56
2024-03-26T05:14:50.145Z,0.60
2024-03-26T05:15:50.129Z,0.63
2024-03-26T05:16:50.107Z,0.68
2024-03-26T05:17:50.095Z,0.70
2024-03-26T05:18:50.072Z,0.74
2024-03-26T05:19:50.112Z,0.78
2024-03-26T05:20:50.073Z,0.84
2024-03-26T05:21:50.047Z,0.89
2024-03-26T05:22:50.046Z,0.95
2024-03-26T05:23:50.033Z,1.02
2024-03-26T05:24:50.015Z,1.13
2024-03-26T05:25:50.013Z,1.24
2024-03-26T05:26:50.024Z,1.31
2024-03-26T05:27:49.964Z,1.39
2024-03-26T05:29:49.984Z,1.56
2024-03-26T05:30:49.945Z,1.61
2024-03-26T05:31:49.922Z,1.64
2024-03-26T05:32:49.951Z,1.68
2024-03-26T05:33:49.897Z,1.71
2024-03-26T05:34:49.881Z,1.74
2024-03-26T05:35:49.885Z,1.81
2024-03-26T05:36:49.847Z,1.86
2024-03-26T05:37:49.847Z,1.90
2024-03-26T05:38:49.835Z,1.95
2024-03-26T05:39:49.832Z,2.01
2024-03-26T05:40:49.816Z,2.09
2024-03-26T05:41:49.798Z,2.22
2024-03-26T05:42:49.777Z,2.33
2024-03-26T05:43:49.772Z,2.47
2024-03-26T05:44:49.750Z,2.61
2024-03-26T05:45:49.751Z,2.68
2024-03-26T05:46:49.735Z,2.77
2024-03-26T05:47:49.726Z,2.92
2024-03-26T05:48:49.704Z,3.07
2024-03-26T05:49:49.679Z,3.23
2024-03-26T05:50:49.732Z,3.44
2024-03-26T05:51:49.658Z,3.57
2024-03-26T05:52:49.672Z,3.60
2024-03-26T05:53:49.638Z,3.63
2024-03-26T05:54:49.616Z,3.64
2024-03-26T05:55:49.606Z,3.62
2024-03-26T05:56:49.655Z,3.63
2024-03-26T05:57:49.581Z,3.64
2024-03-26T05:58:49.557Z,3.70
2024-03-26T05:59:49.572Z,3.77
2024-03-26T06:00:49.569Z,3.86
2024-03-26T06:01:49.560Z,3.93
2024-03-26T06:02:49.585Z,4.06
2024-03-26T06:03:49.503Z,4.24
2024-03-26T06:04:49.510Z,4.47
2024-03-26T06:05:49.488Z,4.75
2024-03-26T06:06:49.490Z,4.88
2024-03-26T06:07:49.465Z,4.94
2024-03-26T06:08:49.442Z,4.99
2024-03-26T06:09:49.444Z,5.05
2024-03-26T06:10:49.444Z,5.12
2024-03-26T06:11:49.492Z,5.19
2024-03-26T06:12:49.403Z,5.24
2024-03-26T06:13:49.387Z,5.30
2024-03-26T06:14:49.436Z,5.40
2024-03-26T06:15:49.343Z,5.48
2024-03-26T06:16:49.351Z,5.62
2024-03-26T06:17:49.335Z,5.75
2024-03-26T06:18:49.299Z,5.84
2024-03-26T06:19:49.347Z,5.88
2024-03-26T06:20:49.291Z,5.93
2024-03-26T06:21:49.259Z,6.01
2024-03-26T06:22:49.277Z,6.02
2024-03-26T06:23:49.435Z,6.06
2024-03-26T06:24:49.233Z,6.14
2024-03-26T06:25:49.212Z,6.24
2024-03-26T06:26:49.215Z,6.28
2024-03-26T06:27:49.223Z,6.40
2024-03-26T06:28:49.165Z,6.50
2024-03-26T06:29:49.235Z,6.60
2024-03-26T06:30:49.159Z,6.64
2024-03-26T06:31:49.157Z,6.72
2024-03-26T06:32:49.290Z,6.81
2024-03-26T06:33:49.134Z,6.96
2024-03-26T06:34:49.146Z,7.11
2024-03-26T06:35:49.119Z,7.33
2024-03-26T06:36:49.065Z,7.66
2024-03-26T06:37:49.074Z,8.00
2024-03-26T06:38:49.053Z,8.36
2024-03-26T06:39:49.040Z,8.70
2024-03-26T06:40:49.026Z,9.06
2024-03-26T06:41:49.027Z,9.44
2024-03-26T06:42:49.032Z,9.77
2024-03-26T06:43:49.006Z,10.09
2024-03-26T06:44:48.956Z,10.38
2024-03-26T06:45:48.954Z,10.75
2024-03-26T06:46:48.935Z,11.12
2024-03-26T06:47:48.946Z,11.41
2024-03-26T06:48:48.938Z,11.69
2024-03-26T06:49:48.911Z,12.08
2024-03-26T06:50:48.895Z,12.41
2024-03-26T06:51:48.922Z,12.77
2024-03-26T06:52:48.876Z,13.03
2024-03-26T06:53:48.856Z,13.28
2024-03-26T06:54:48.844Z,13.51
2024-03-26T06:55:48.823Z,13.80
2024-03-26T06:56:48.802Z,14.02
2024-03-26T06:57:48.808Z,14.19
2024-03-26T06:58:48.786Z,14.42
2024-03-26T06:59:48.786Z,14.64
2024-03-26T07:00:48.758Z,14.80
2024-03-26T07:01:48.755Z,14.94
2024-03-26T07:02:48.758Z,15.22
2024-03-26T07:03:48.707Z,15.46
2024-03-26T07:04:48.695Z,15.66
2024-03-26T07:05:48.688Z,15.89
2024-03-26T07:06:48.690Z,16.11
2024-03-26T07:07:48.665Z,16.29
2024-03-26T07:08:48.657Z,16.47
2024-03-26T07:09:48.625Z,16.54
2024-03-26T07:10:48.620Z,16.63
2024-03-26T07:11:48.612Z,16.62
2024-03-26T07:12:48.614Z,16.69
2024-03-26T07:13:48.587Z,16.91
2024-03-26T07:14:48.565Z,17.07
2024-03-26T07:15:48.565Z,17.32
2024-03-26T07:16:48.571Z,17.62
2024-03-26T07:17:48.535Z,17.89
2024-03-26T07:18:50.178Z,18.11
2024-03-26T07:19:48.497Z,18.28
2024-03-26T07:20:48.498Z,18.36
2024-03-26T07:21:48.479Z,18.51
2024-03-26T07:22:48.494Z,18.66
2024-03-26T07:23:48.452Z,18.68
2024-03-26T07:24:48.435Z,18.75
2024-03-26T07:25:48.429Z,18.72
2024-03-26T07:26:48.427Z,18.82
2024-03-26T07:27:48.406Z,18.90
2024-03-26T07:28:48.393Z,18.93
2024-03-26T07:29:48.399Z,18.91
2024-03-26T07:30:48.380Z,18.84
2024-03-26T07:31:48.340Z,18.68
2024-03-26T07:32:48.367Z,18.60
2024-03-26T07:33:48.323Z,18.62
2024-03-26T07:34:48.319Z,18.68
2024-03-26T07:35:48.298Z,18.76
2024-03-26T07:36:48.359Z,18.87
2024-03-26T07:37:48.261Z,19.05
2024-03-26T07:38:48.265Z,19.20
2024-03-26T07:39:48.249Z,19.16
2024-03-26T07:40:48.243Z,19.10
2024-03-26T07:41:48.218Z,19.24
2024-03-26T07:42:48.210Z,19.39
2024-03-26T07:43:48.203Z,19.50
2024-03-26T07:44:48.316Z,19.47
2024-03-26T07:45:48.174Z,19.39
2024-03-26T07:46:48.173Z,19.17
2024-03-26T07:47:48.129Z,19.05
2024-03-26T07:48:48.137Z,18.91
2024-03-26T07:49:48.179Z,18.91
2024-03-26T07:50:48.139Z,18.79
2024-03-26T07:51:48.078Z,18.74
2024-03-26T07:52:48.245Z,18.69
2024-03-26T07:53:48.153Z,18.66
2024-03-26T07:54:48.059Z,18.65
2024-03-26T07:55:48.030Z,18.54
2024-03-26T07:56:48.032Z,18.50
2024-03-26T07:57:48.025Z,18.53
2024-03-26T07:58:47.998Z,18.64
2024-03-26T07:59:48.025Z,18.84
2024-03-26T08:00:47.974Z,19.05
2024-03-26T08:01:47.950Z,19.20
2024-03-26T08:02:47.965Z,19.39
2024-03-26T08:03:47.957Z,19.57
2024-03-26T08:04:47.920Z,19.52
2024-03-26T08:05:47.916Z,19.42
2024-03-26T08:06:47.922Z,19.17
2024-03-26T08:07:47.905Z,19.01
2024-03-26T08:08:47.926Z,18.96
2024-03-26T08:09:47.850Z,19.09
2024-03-26T08:10:47.845Z,19.27
2024-03-26T08:11:47.840Z,19.27
2024-03-26T08:12:47.814Z,19.28
2024-03-26T08:13:47.819Z,19.20
2024-03-26T08:14:47.836Z,19.01
2024-03-26T08:15:47.786Z,18.91
2024-03-26T08:16:47.900Z,18.78
2024-03-26T08:17:47.769Z,18.64
2024-03-26T08:18:47.756Z,18.44
2024-03-26T08:19:47.735Z,18.23
2024-03-26T08:20:47.747Z,18.05
2024-03-26T08:21:47.695Z,17.86
2024-03-26T08:22:47.692Z,17.60
2024-03-26T08:23:47.710Z,17.39
2024-03-26T08:24:47.688Z,17.24
2024-03-26T08:25:47.683Z,17.25
2024-03-26T08:26:47.628Z,17.38
2024-03-26T08:27:47.629Z,17.47
2024-03-26T08:28:47.605Z,17.47
2024-03-26T08:29:47.622Z,17.38
2024-03-26T08:30:47.585Z,17.32
2024-03-26T08:31:47.572Z,17.21
2024-03-26T08:32:47.572Z,17.17
2024-03-26T08:33:47.547Z,17.06
2024-03-26T08:34:47.549Z,16.96
2024-03-26T08:35:47.522Z,17.02
2024-03-26T08:36:47.486Z,17.09
2024-03-26T08:37:47.471Z,17.09
2024-03-26T08:38:47.498Z,17.00
2024-03-26T08:39:47.483Z,16.84
2024-03-26T08:40:47.442Z,16.78
2024-03-26T08:41:47.427Z,16.75
2024-03-26T08:42:47.418Z,16.82
2024-03-26T08:43:47.428Z,16.99
2024-03-26T08:44:47.405Z,17.18
2024-03-26T08:45:47.400Z,17.36
2024-03-26T08:46:47.360Z,17.39
2024-03-26T08:47:47.355Z,17.45
2024-03-26T08:48:47.371Z,17.49
2024-03-26T08:49:47.325Z,17.54
2024-03-26T08:50:47.327Z,17.68
2024-03-26T08:51:48.767Z,17.89
2024-03-26T08:52:47.299Z,17.99
2024-03-26T08:53:47.283Z,18.05
2024-03-26T08:54:47.259Z,18.17
2024-03-26T08:55:47.265Z,18.31
2024-03-26T08:56:47.240Z,18.38
2024-03-26T08:57:47.231Z,18.39
2024-03-26T08:58:47.214Z,18.50
2024-03-26T08:59:47.189Z,18.53
2024-03-26T09:00:47.193Z,18.59
2024-03-26T09:01:47.778Z,18.56
2024-03-26T09:02:47.193Z,18.53
2024-03-26T09:03:47.149Z,18.59
2024-03-26T09:04:47.130Z,18.54
2024-03-26T09:05:47.113Z,18.57
2024-03-26T09:06:47.140Z,18.66
2024-03-26T09:07:47.112Z,18.71
2024-03-26T09:08:47.072Z,18.79
2024-03-26T09:09:47.068Z,18.90
2024-03-26T09:10:47.056Z,19.06
2024-03-26T09:11:47.040Z,19.20
2024-03-26T09:12:47.048Z,19.21
2024-03-26T09:13:47.021Z,19.15
2024-03-26T09:14:46.996Z,19.09
2024-03-26T09:15:47.017Z,18.93
2024-03-26T09:16:47.014Z,18.87
2024-03-26T09:17:47.043Z,18.75
2024-03-26T09:18:46.987Z,18.68
2024-03-26T09:19:46.922Z,18.69
2024-03-26T09:20:46.927Z,18.66
2024-03-26T09:21:46.922Z,18.71
2024-03-26T09:22:46.901Z,18.74
2024-03-26T09:23:46.873Z,18.69
2024-03-26T09:24:50.715Z,18.57
2024-03-26T09:25:46.864Z,18.51
2024-03-26T09:26:46.867Z,18.51
2024-03-26T09:27:46.831Z,18.50
2024-03-26T09:28:46.814Z,18.57
2024-03-26T09:29:46.821Z,18.60
2024-03-26T09:30:46.791Z,18.62
2024-03-26T09:31:46.840Z,18.60
2024-03-26T09:32:46.766Z,18.54
2024-03-26T09:33:46.754Z,18.53
2024-03-26T09:34:46.740Z,18.64
2024-03-26T09:35:47.369Z,18.60
2024-03-26T09:36:46.706Z,18.53
2024-03-26T09:37:46.676Z,18.49
2024-03-26T09:38:48.823Z,18.32
2024-03-26T09:39:46.676Z,18.28
2024-03-26T09:40:46.665Z,18.23
2024-03-26T09:41:46.629Z,18.29
2024-03-26T09:42:46.629Z,18.31
2024-03-26T09:43:46.618Z,18.35
2024-03-26T09:44:55.109Z,18.38
2024-03-26T09:45:47.625Z,18.32
2024-03-26T09:46:46.591Z,18.21
2024-03-26T09:47:46.556Z,18.29
2024-03-26T09:48:46.566Z,18.32
2024-03-26T09:49:46.525Z,18.28
2024-03-26T09:50:46.520Z,18.26
2024-03-26T09:51:46.497Z,18.31
2024-03-26T09:52:46.496Z,18.14
2024-03-26T09:53:46.505Z,18.01
2024-03-26T09:54:46.471Z,17.87
2024-03-26T09:55:46.445Z,17.68
2024-03-26T09:56:46.432Z,17.62
2024-03-26T09:57:46.443Z,17.40
2024-03-26T09:58:46.447Z,17.22
2024-03-26T09:59:46.398Z,17.00
2024-03-26T10:00:46.394Z,16.88
2024-03-26T10:01:46.375Z,16.73
2024-03-26T10:02:46.371Z,16.63
2024-03-26T10:03:46.369Z,16.63
2024-03-26T10:04:46.321Z,16.69
2024-03-26T10:05:46.361Z,16.80
2024-03-26T10:06:46.315Z,16.87
2024-03-26T10:07:46.310Z,16.88
2024-03-26T10:08:46.268Z,16.91
2024-03-26T10:09:46.260Z,16.95
2024-03-26T10:10:46.259Z,16.90
2024-03-26T10:11:46.273Z,16.88
2024-03-26T10:12:46.232Z,16.85
2024-03-26T10:13:46.222Z,16.84
2024-03-26T10:14:46.193Z,16.88
2024-03-26T10:15:46.220Z,16.91
2024-03-26T10:16:46.193Z,16.90
2024-03-26T10:17:46.174Z,16.88
2024-03-26T10:18:46.166Z,16.90
2024-03-26T10:19:46.131Z,16.87
2024-03-26T10:20:46.157Z,16.87
2024-03-26T10:21:46.110Z,16.92
2024-03-26T10:22:46.780Z,16.88
2024-03-26T10:23:46.081Z,16.80
2024-03-26T10:24:46.094Z,16.81
2024-03-26T10:25:46.066Z,16.88
2024-03-26T10:26:46.031Z,16.98
2024-03-26T10:27:46.022Z,17.05
2024-03-26T10:28:46.009Z,17.09
2024-03-26T10:29:45.998Z,16.98
2024-03-26T10:30:45.995Z,16.84
2024-03-26T10:31:45.997Z,16.82
2024-03-26T10:32:45.955Z,16.90
2024-03-26T10:33:45.959Z,16.95
2024-03-26T10:34:45.955Z,16.96
2024-03-26T10:35:45.961Z,16.99
2024-03-26T10:36:45.914Z,17.03
2024-03-26T10:37:45.909Z,17.02
2024-03-26T10:38:53.932Z,16.99
2024-03-26T10:39:46.921Z,16.98
2024-03-26T10:40:45.853Z,16.92
2024-03-26T10:41:45.842Z,16.96
2024-03-26T10:42:45.851Z,16.99
2024-03-26T10:43:45.838Z,17.02
2024-03-26T10:44:45.820Z,17.03
2024-03-26T10:45:59.954Z,17.06
2024-03-26T10:46:48.253Z,17.03
2024-03-26T10:47:45.781Z,17.03
2024-03-26T10:48:54.296Z,17.10
2024-03-26T10:49:46.740Z,17.14
2024-03-26T10:50:45.755Z,17.15
2024-03-26T10:51:45.745Z,17.18
2024-03-26T10:52:45.820Z,17.20
2024-03-26T10:53:45.711Z,17.15
2024-03-26T10:54:45.665Z,17.12
2024-03-26T10:55:45.659Z,17.12
2024-03-26T10:56:45.646Z,17.09
2024-03-26T10:57:45.640Z,17.07
2024-03-26T10:58:45.621Z,17.07
2024-03-26T10:59:45.609Z,17.09
2024-03-26T11:00:45.633Z,17.15
2024-03-26T11:01:45.580Z,17.22
2024-03-26T11:02:54.646Z,17.22
2024-03-26T11:03:45.583Z,17.17
2024-03-26T11:04:45.593Z,17.15
2024-03-26T11:05:45.524Z,17.15
2024-03-26T11:06:45.629Z,17.25
2024-03-26T11:07:45.515Z,17.35
2024-03-26T11:08:45.503Z,17.40
2024-03-26T11:09:45.478Z,17.46
2024-03-26T11:10:45.454Z,17.47
2024-03-26T11:11:45.485Z,17.43
2024-03-26T11:12:45.429Z,17.45
2024-03-26T11:13:45.433Z,17.42
2024-03-26T11:14:45.402Z,17.35
2024-03-26T11:15:45.395Z,17.33
2024-03-26T11:16:45.389Z,17.33
2024-03-26T11:17:45.386Z,17.28
2024-03-26T11:18:45.348Z,17.22
2024-03-26T11:19:45.333Z,17.18
2024-03-26T11:20:45.360Z,17.21
2024-03-26T11:21:46.349Z,17.21
2024-03-26T11:22:45.286Z,17.25
2024-03-26T11:23:45.295Z,17.30
2024-03-26T11:24:45.277Z,17.24
2024-03-26T11:25:45.271Z,17.20
2024-03-26T11:26:45.249Z,17.22
2024-03-26T11:27:45.223Z,17.28
2024-03-26T11:28:45.235Z,17.36
2024-03-26T11:29:45.220Z,17.36
2024-03-26T11:30:45.230Z,17.28
2024-03-26T11:31:45.184Z,17.32
2024-03-26T11:32:45.175Z,17.28
2024-03-26T11:33:45.171Z,17.18
2024-03-26T11:34:45.149Z,17.15
2024-03-26T11:35:45.131Z,17.09
2024-03-26T11:36:45.115Z,17.07
2024-03-26T11:37:45.094Z,17.12
2024-03-26T11:38:45.099Z,17.12
2024-03-26T11:39:45.094Z,17.09
2024-03-26T11:40:45.070Z,17.09
2024-03-26T11:41:45.052Z,17.12
2024-03-26T11:42:45.070Z,17.14
2024-03-26T11:43:45.038Z,17.12
2024-03-26T11:44:45.026Z,17.03
2024-03-26T11:45:44.992Z,16.99
2024-03-26T11:46:44.977Z,17.02
2024-03-26T11:47:45.002Z,17.02
2024-03-26T11:48:44.956Z,16.99
2024-03-26T11:49:44.956Z,17.00
2024-03-26T11:50:44.926Z,17.05
2024-03-26T11:51:44.940Z,17.17
2024-03-26T11:52:44.895Z,17.27
2024-03-26T11:53:44.906Z,17.35
2024-03-26T11:54:44.878Z,17.42
2024-03-26T11:55:44.859Z,17.55
2024-03-26T11:56:44.860Z,17.65
2024-03-26T11:57:44.852Z,17.71
2024-03-26T11:58:44.830Z,17.74
2024-03-26T11:59:44.814Z,17.74
2024-03-26T12:00:44.789Z,17.81
2024-03-26T12:01:44.798Z,17.80
2024-03-26T12:02:44.785Z,17.80
2024-03-26T12:03:44.781Z,17.81
2024-03-26T12:04:44.743Z,17.86
2024-03-26T12:05:44.728Z,17.91
2024-03-26T12:06:44.748Z,17.92
2024-03-26T12:07:44.713Z,17.94
2024-03-26T12:08:44.695Z,17.98
2024-03-26T12:09:44.720Z,17.96
2024-03-26T12:10:44.681Z,17.86
2024-03-26T12:11:44.658Z,17.81
2024-03-26T12:12:44.669Z,17.81
2024-03-26T12:13:44.618Z,17.81
2024-03-26T12:14:45.543Z,17.81
2024-03-26T12:15:44.600Z,17.77
2024-03-26T12:16:44.606Z,17.79
2024-03-26T12:17:44.589Z,17.81
2024-03-26T12:18:44.563Z,17.79
2024-03-26T12:19:44.551Z,17.83
2024-03-26T12:20:44.536Z,17.87
2024-03-26T12:21:44.544Z,17.95
2024-03-26T12:22:44.512Z,17.99
2024-03-26T12:23:44.502Z,18.04
2024-03-26T12:24:44.480Z,18.10
2024-03-26T12:25:44.463Z,18.09
2024-03-26T12:26:44.453Z,18.05
2024-03-26T12:27:46.645Z,18.09
2024-03-26T12:28:44.450Z,18.09
2024-03-26T12:29:44.412Z,18.13
2024-03-26T12:30:44.421Z,18.16
2024-03-26T12:31:44.409Z,18.13
2024-03-26T12:32:44.425Z,18.11
2024-03-26T12:33:45.594Z,18.16
2024-03-26T12:34:44.412Z,18.17
2024-03-26T12:35:44.399Z,18.16
2024-03-26T12:36:44.411Z,18.16
2024-03-26T12:37:44.369Z,18.10
2024-03-26T12:38:44.424Z,18.07
2024-03-26T12:39:44.366Z,18.04
2024-03-26T12:40:44.429Z,18.01
2024-03-26T12:41:44.277Z,18.01
2024-03-26T12:42:44.255Z,17.91
2024-03-26T12:43:44.229Z,17.83
2024-03-26T12:44:44.231Z,17.81
2024-03-26T12:45:44.255Z,17.79
2024-03-26T12:46:44.191Z,17.68
2024-03-26T12:47:44.181Z,17.60
2024-03-26T12:48:44.170Z,17.55
2024-03-26T12:49:44.160Z,17.58
2024-03-26T12:50:44.132Z,17.62
2024-03-26T12:51:44.130Z,17.68
2024-03-26T12:52:44.107Z,17.74
2024-03-26T12:54:35.818Z,17.71
2024-03-26T12:54:44.087Z,17.70
2024-03-26T12:55:44.082Z,17.71
2024-03-26T12:56:44.059Z,17.70
2024-03-26T12:57:44.058Z,17.66
2024-03-26T12:58:44.065Z,17.65